Huntley, Montana
Current Conditions -  °F | °C
As of 4:53 PM on Saturday 22 Nov 2014 (Local Time) from KBIL Reporting Station
Scattered Clouds Scattered Clouds  
Wind Chill: 33°   Ceiling: Unl
Heat Index: 43°   Visibility: 10mi
Dew Point: 23°   Wind: 25mph
Humidity: 45%   Direction: 270°W
Pressure: 29.46"   Gusts: 35mph
Location:  45.9°N, 108.3°W
Report Text: KBIL 222353Z 27022G30KT 10SM FEW050 FEW120 SCT220 06/M05 A2946 RMK AO2 PK WND 27031/2323 SLP983 VIRGA SHRA DSNT E-S 60000 T00611050 10100 20061 53019 $
Loading
Personal Weather Stations






























Interactive Weather Map New forecast layout! Learn more

10-Day Weather Forecast

Advertisements
Track Severe Weather on mobile